Terminal Aerodrome Forecast
Issued by NWS Shreveport, LA

Home | Current Version | Previous Version | Text Only | Print | Product List | Glossary On
Versions: 1 2 3 4 5 6 7 8 9 10 11 12 13 14 15 16
000
FTUS44 KSHV 011200 AAA
TAFTXK
TAF AMD
KTXK 011233Z 0113/0212 19012G22KT P6SM -RA OVC009
     FM011400 23012G20KT 5SM -RA BR VCTS OVC015CB
     FM011800 31012KT 5SM -RA BR OVC015
     FM012200 32013G22KT P6SM BKN100
     FM020300 33013G22KT P6SM SKC=

USA.gov is the U.S. government's official web portal to all federal, state and local government web resources and services.